sensor_id;sensor_type;location;lat;lon;timestamp;P1;durP1;ratioP1;P2;durP2;ratioP2
50976;SDS011;36992;48.200;12.418;2023-06-19T00:00:17;4.00;;;2.88;;
50976;SDS011;36992;48.200;12.418;2023-06-19T00:02:43;3.78;;;2.78;;
50976;SDS011;36992;48.200;12.418;2023-06-19T00:05:10;9.23;;;3.13;;
50976;SDS011;36992;48.200;12.418;2023-06-19T00:07:38;4.57;;;3.25;;
50976;SDS011;36992;48.200;12.418;2023-06-19T00:10:07;4.55;;;2.92;;
50976;SDS011;36992;48.200;12.418;2023-06-19T00:12:33;4.63;;;3.10;;
50976;SDS011;36992;48.200;12.418;2023-06-19T00:15:00;4.75;;;2.85;;
50976;SDS011;36992;48.200;12.418;2023-06-19T00:17:27;4.25;;;2.97;;
50976;SDS011;36992;48.200;12.418;2023-06-19T00:19:53;3.75;;;2.85;;
50976;SDS011;36992;48.200;12.418;2023-06-19T00:22:20;6.22;;;3.30;;
50976;SDS011;36992;48.200;12.418;2023-06-19T00:24:46;4.53;;;3.10;;
50976;SDS011;36992;48.200;12.418;2023-06-19T00:27:14;6.88;;;3.47;;
50976;SDS011;36992;48.200;12.418;2023-06-19T00:29:41;5.05;;;2.95;;
50976;SDS011;36992;48.200;12.418;2023-06-19T00:32:07;5.20;;;3.80;;
50976;SDS011;36992;48.200;12.418;2023-06-19T00:34:34;5.65;;;3.40;;
50976;SDS011;36992;48.200;12.418;2023-06-19T00:37:02;5.40;;;3.17;;
50976;SDS011;36992;48.200;12.418;2023-06-19T00:39:28;5.15;;;3.60;;
50976;SDS011;36992;48.200;12.418;2023-06-19T00:41:55;5.80;;;3.78;;
50976;SDS011;36992;48.200;12.418;2023-06-19T00:44:23;4.65;;;2.80;;
50976;SDS011;36992;48.200;12.418;2023-06-19T00:46:51;5.35;;;3.58;;
50976;SDS011;36992;48.200;12.418;2023-06-19T00:49:23;5.47;;;3.60;;
50976;SDS011;36992;48.200;12.418;2023-06-19T00:51:51;4.97;;;3.38;;
50976;SDS011;36992;48.200;12.418;2023-06-19T00:54:18;4.72;;;3.28;;
50976;SDS011;36992;48.200;12.418;2023-06-19T00:56:46;5.60;;;3.58;;
50976;SDS011;36992;48.200;12.418;2023-06-19T00:59:14;6.25;;;3.78;;
50976;SDS011;36992;48.200;12.418;2023-06-19T01:01:44;4.50;;;3.00;;
50976;SDS011;36992;48.200;12.418;2023-06-19T01:04:11;4.68;;;3.22;;
50976;SDS011;36992;48.200;12.418;2023-06-19T01:06:39;5.97;;;4.00;;
50976;SDS011;36992;48.200;12.418;2023-06-19T01:09:13;6.15;;;3.53;;
50976;SDS011;36992;48.200;12.418;2023-06-19T01:11:43;4.75;;;3.38;;
50976;SDS011;36992;48.200;12.418;2023-06-19T01:14:13;4.82;;;3.40;;
50976;SDS011;36992;48.200;12.418;2023-06-19T01:16:44;5.40;;;2.97;;
50976;SDS011;36992;48.200;12.418;2023-06-19T01:19:11;6.57;;;3.53;;
50976;SDS011;36992;48.200;12.418;2023-06-19T01:21:42;5.22;;;3.65;;
50976;SDS011;36992;48.200;12.418;2023-06-19T01:24:10;6.00;;;3.75;;
50976;SDS011;36992;48.200;12.418;2023-06-19T01:26:37;6.22;;;3.47;;
50976;SDS011;36992;48.200;12.418;2023-06-19T01:29:03;4.28;;;3.00;;
50976;SDS011;36992;48.200;12.418;2023-06-19T01:31:31;5.50;;;3.50;;
50976;SDS011;36992;48.200;12.418;2023-06-19T01:34:00;5.13;;;3.45;;
50976;SDS011;36992;48.200;12.418;2023-06-19T01:36:29;5.15;;;4.03;;
50976;SDS011;36992;48.200;12.418;2023-06-19T01:38:57;4.65;;;3.10;;
50976;SDS011;36992;48.200;12.418;2023-06-19T01:41:27;5.47;;;3.50;;
50976;SDS011;36992;48.200;12.418;2023-06-19T01:43:55;4.55;;;3.08;;
50976;SDS011;36992;48.200;12.418;2023-06-19T01:46:23;5.10;;;3.47;;
50976;SDS011;36992;48.200;12.418;2023-06-19T01:48:49;5.38;;;3.58;;
50976;SDS011;36992;48.200;12.418;2023-06-19T01:51:16;5.45;;;3.20;;
50976;SDS011;36992;48.200;12.418;2023-06-19T01:53:43;5.55;;;3.28;;
50976;SDS011;36992;48.200;12.418;2023-06-19T01:56:09;4.47;;;3.03;;
50976;SDS011;36992;48.200;12.418;2023-06-19T01:58:38;5.25;;;3.58;;
50976;SDS011;36992;48.200;12.418;2023-06-19T02:01:04;5.88;;;3.53;;
50976;SDS011;36992;48.200;12.418;2023-06-19T02:03:31;4.55;;;2.83;;
50976;SDS011;36992;48.200;12.418;2023-06-19T02:05:57;5.20;;;3.47;;
50976;SDS011;36992;48.200;12.418;2023-06-19T02:08:24;5.13;;;3.53;;
50976;SDS011;36992;48.200;12.418;2023-06-19T02:10:50;6.22;;;2.97;;
50976;SDS011;36992;48.200;12.418;2023-06-19T02:13:17;4.60;;;3.33;;
50976;SDS011;36992;48.200;12.418;2023-06-19T02:15:44;4.35;;;3.03;;
50976;SDS011;36992;48.200;12.418;2023-06-19T02:18:11;4.78;;;2.90;;
50976;SDS011;36992;48.200;12.418;2023-06-19T02:20:37;5.60;;;3.78;;
50976;SDS011;36992;48.200;12.418;2023-06-19T02:23:04;4.13;;;2.78;;
50976;SDS011;36992;48.200;12.418;2023-06-19T02:25:30;5.63;;;3.10;;
50976;SDS011;36992;48.200;12.418;2023-06-19T02:27:58;5.30;;;3.10;;
50976;SDS011;36992;48.200;12.418;2023-06-19T02:30:25;6.43;;;3.67;;
50976;SDS011;36992;48.200;12.418;2023-06-19T02:32:53;5.90;;;3.08;;
50976;SDS011;36992;48.200;12.418;2023-06-19T02:35:19;4.97;;;3.05;;
50976;SDS011;36992;48.200;12.418;2023-06-19T02:37:46;4.75;;;3.38;;
50976;SDS011;36992;48.200;12.418;2023-06-19T02:40:12;4.63;;;3.28;;
50976;SDS011;36992;48.200;12.418;2023-06-19T02:42:39;6.10;;;3.45;;
50976;SDS011;36992;48.200;12.418;2023-06-19T02:45:06;4.85;;;2.92;;
50976;SDS011;36992;48.200;12.418;2023-06-19T02:47:33;5.07;;;3.45;;
50976;SDS011;36992;48.200;12.418;2023-06-19T02:50:02;6.03;;;3.90;;
50976;SDS011;36992;48.200;12.418;2023-06-19T02:52:30;6.00;;;3.90;;
50976;SDS011;36992;48.200;12.418;2023-06-19T02:54:56;5.47;;;3.63;;
50976;SDS011;36992;48.200;12.418;2023-06-19T02:57:24;5.65;;;3.83;;
50976;SDS011;36992;48.200;12.418;2023-06-19T02:59:50;5.10;;;3.40;;
50976;SDS011;36992;48.200;12.418;2023-06-19T03:02:17;5.28;;;3.55;;
50976;SDS011;36992;48.200;12.418;2023-06-19T03:04:44;5.68;;;3.03;;
50976;SDS011;36992;48.200;12.418;2023-06-19T03:07:12;4.38;;;2.90;;
50976;SDS011;36992;48.200;12.418;2023-06-19T03:09:39;4.53;;;2.92;;
50976;SDS011;36992;48.200;12.418;2023-06-19T03:12:06;3.70;;;2.80;;
50976;SDS011;36992;48.200;12.418;2023-06-19T03:14:33;5.05;;;3.40;;
50976;SDS011;36992;48.200;12.418;2023-06-19T03:17:00;7.70;;;3.25;;
50976;SDS011;36992;48.200;12.418;2023-06-19T03:19:26;4.72;;;3.10;;
50976;SDS011;36992;48.200;12.418;2023-06-19T03:21:53;3.72;;;2.63;;
50976;SDS011;36992;48.200;12.418;2023-06-19T03:24:20;4.78;;;3.40;;
50976;SDS011;36992;48.200;12.418;2023-06-19T03:26:47;3.80;;;2.58;;
50976;SDS011;36992;48.200;12.418;2023-06-19T03:29:13;3.83;;;2.88;;
50976;SDS011;36992;48.200;12.418;2023-06-19T03:31:40;4.70;;;3.20;;
50976;SDS011;36992;48.200;12.418;2023-06-19T03:34:06;4.15;;;2.88;;
50976;SDS011;36992;48.200;12.418;2023-06-19T03:36:33;4.75;;;3.22;;
50976;SDS011;36992;48.200;12.418;2023-06-19T03:38:59;5.60;;;3.15;;
50976;SDS011;36992;48.200;12.418;2023-06-19T03:41:27;5.40;;;3.20;;
50976;SDS011;36992;48.200;12.418;2023-06-19T03:43:53;4.47;;;3.35;;
50976;SDS011;36992;48.200;12.418;2023-06-19T03:46:20;5.82;;;3.00;;
50976;SDS011;36992;48.200;12.418;2023-06-19T03:48:46;5.93;;;3.55;;
50976;SDS011;36992;48.200;12.418;2023-06-19T03:51:13;5.32;;;2.78;;
50976;SDS011;36992;48.200;12.418;2023-06-19T03:53:40;3.83;;;3.15;;
50976;SDS011;36992;48.200;12.418;2023-06-19T03:56:07;5.75;;;3.42;;
50976;SDS011;36992;48.200;12.418;2023-06-19T03:58:35;5.03;;;3.72;;
50976;SDS011;36992;48.200;12.418;2023-06-19T04:01:01;5.15;;;3.53;;
50976;SDS011;36992;48.200;12.418;2023-06-19T04:03:28;4.32;;;2.97;;
50976;SDS011;36992;48.200;12.418;2023-06-19T04:05:55;5.30;;;3.35;;
50976;SDS011;36992;48.200;12.418;2023-06-19T04:08:21;4.80;;;3.20;;
50976;SDS011;36992;48.200;12.418;2023-06-19T04:10:48;6.05;;;3.63;;
50976;SDS011;36992;48.200;12.418;2023-06-19T04:13:14;7.35;;;3.85;;
50976;SDS011;36992;48.200;12.418;2023-06-19T04:15:42;5.32;;;3.55;;
50976;SDS011;36992;48.200;12.418;2023-06-19T04:18:09;4.18;;;3.03;;
50976;SDS011;36992;48.200;12.418;2023-06-19T04:20:36;5.55;;;3.67;;
50976;SDS011;36992;48.200;12.418;2023-06-19T04:23:02;4.93;;;3.70;;
50976;SDS011;36992;48.200;12.418;2023-06-19T04:25:29;4.65;;;3.55;;
50976;SDS011;36992;48.200;12.418;2023-06-19T04:27:55;4.78;;;3.47;;
50976;SDS011;36992;48.200;12.418;2023-06-19T04:30:22;4.82;;;2.90;;
50976;SDS011;36992;48.200;12.418;2023-06-19T04:32:49;3.97;;;2.75;;
50976;SDS011;36992;48.200;12.418;2023-06-19T04:35:18;6.18;;;3.78;;
50976;SDS011;36992;48.200;12.418;2023-06-19T04:37:44;4.43;;;3.20;;
50976;SDS011;36992;48.200;12.418;2023-06-19T04:40:13;5.07;;;3.50;;
50976;SDS011;36992;48.200;12.418;2023-06-19T04:42:40;4.32;;;3.25;;
50976;SDS011;36992;48.200;12.418;2023-06-19T04:45:07;4.90;;;3.55;;
50976;SDS011;36992;48.200;12.418;2023-06-19T04:47:34;3.85;;;2.80;;
50976;SDS011;36992;48.200;12.418;2023-06-19T04:50:02;5.90;;;3.13;;
50976;SDS011;36992;48.200;12.418;2023-06-19T04:52:29;3.85;;;2.75;;
50976;SDS011;36992;48.200;12.418;2023-06-19T04:54:58;7.53;;;3.63;;
50976;SDS011;36992;48.200;12.418;2023-06-19T04:57:25;4.78;;;3.28;;
50976;SDS011;36992;48.200;12.418;2023-06-19T04:59:51;6.22;;;3.72;;
50976;SDS011;36992;48.200;12.418;2023-06-19T05:02:18;6.85;;;4.30;;
50976;SDS011;36992;48.200;12.418;2023-06-19T05:04:44;5.72;;;3.53;;
50976;SDS011;36992;48.200;12.418;2023-06-19T05:07:12;7.90;;;4.47;;
50976;SDS011;36992;48.200;12.418;2023-06-19T05:09:40;5.85;;;3.92;;
50976;SDS011;36992;48.200;12.418;2023-06-19T05:12:07;5.90;;;4.20;;
50976;SDS011;36992;48.200;12.418;2023-06-19T05:14:34;4.50;;;3.22;;
50976;SDS011;36992;48.200;12.418;2023-06-19T05:17:00;5.22;;;2.90;;
50976;SDS011;36992;48.200;12.418;2023-06-19T05:19:27;6.32;;;3.85;;
50976;SDS011;36992;48.200;12.418;2023-06-19T05:21:53;6.50;;;3.33;;
50976;SDS011;36992;48.200;12.418;2023-06-19T05:24:21;9.38;;;3.58;;
50976;SDS011;36992;48.200;12.418;2023-06-19T05:26:48;5.22;;;3.78;;
50976;SDS011;36992;48.200;12.418;2023-06-19T05:29:14;4.03;;;2.85;;
50976;SDS011;36992;48.200;12.418;2023-06-19T05:31:41;5.18;;;2.97;;
50976;SDS011;36992;48.200;12.418;2023-06-19T05:34:07;3.75;;;2.83;;
50976;SDS011;36992;48.200;12.418;2023-06-19T05:36:34;4.28;;;2.75;;
50976;SDS011;36992;48.200;12.418;2023-06-19T05:39:00;4.90;;;3.30;;
50976;SDS011;36992;48.200;12.418;2023-06-19T05:41:28;7.13;;;3.03;;
50976;SDS011;36992;48.200;12.418;2023-06-19T05:43:55;4.47;;;2.63;;
50976;SDS011;36992;48.200;12.418;2023-06-19T05:46:22;5.53;;;2.85;;
50976;SDS011;36992;48.200;12.418;2023-06-19T05:48:48;4.68;;;2.95;;
50976;SDS011;36992;48.200;12.418;2023-06-19T05:51:15;4.47;;;3.03;;
50976;SDS011;36992;48.200;12.418;2023-06-19T05:53:41;4.50;;;3.55;;
50976;SDS011;36992;48.200;12.418;2023-06-19T05:56:08;4.10;;;2.83;;
50976;SDS011;36992;48.200;12.418;2023-06-19T05:58:36;5.40;;;3.60;;
50976;SDS011;36992;48.200;12.418;2023-06-19T06:01:03;5.25;;;3.15;;
50976;SDS011;36992;48.200;12.418;2023-06-19T06:03:30;4.68;;;3.50;;
50976;SDS011;36992;48.200;12.418;2023-06-19T06:05:57;4.55;;;3.05;;
50976;SDS011;36992;48.200;12.418;2023-06-19T06:08:27;4.20;;;2.80;;
50976;SDS011;36992;48.200;12.418;2023-06-19T06:10:54;5.18;;;3.35;;
50976;SDS011;36992;48.200;12.418;2023-06-19T06:13:21;4.05;;;3.17;;
50976;SDS011;36992;48.200;12.418;2023-06-19T06:15:49;6.05;;;3.35;;
50976;SDS011;36992;48.200;12.418;2023-06-19T06:18:15;6.35;;;3.70;;
50976;SDS011;36992;48.200;12.418;2023-06-19T06:20:42;7.35;;;3.42;;
50976;SDS011;36992;48.200;12.418;2023-06-19T06:23:08;4.10;;;2.80;;
50976;SDS011;36992;48.200;12.418;2023-06-19T06:25:35;6.20;;;4.00;;
50976;SDS011;36992;48.200;12.418;2023-06-19T06:28:01;4.38;;;2.92;;
50976;SDS011;36992;48.200;12.418;2023-06-19T06:30:28;5.25;;;3.40;;
50976;SDS011;36992;48.200;12.418;2023-06-19T06:32:55;5.53;;;3.50;;
50976;SDS011;36992;48.200;12.418;2023-06-19T06:35:23;5.38;;;3.35;;
50976;SDS011;36992;48.200;12.418;2023-06-19T06:37:49;4.10;;;2.80;;
50976;SDS011;36992;48.200;12.418;2023-06-19T06:40:16;5.95;;;3.70;;
50976;SDS011;36992;48.200;12.418;2023-06-19T06:42:42;7.35;;;3.50;;
50976;SDS011;36992;48.200;12.418;2023-06-19T06:45:09;5.40;;;3.28;;
50976;SDS011;36992;48.200;12.418;2023-06-19T06:47:36;4.68;;;3.20;;
50976;SDS011;36992;48.200;12.418;2023-06-19T06:50:04;4.35;;;2.97;;
50976;SDS011;36992;48.200;12.418;2023-06-19T06:52:32;5.47;;;3.70;;
50976;SDS011;36992;48.200;12.418;2023-06-19T06:54:58;6.13;;;4.00;;
50976;SDS011;36992;48.200;12.418;2023-06-19T06:57:25;6.03;;;3.80;;
50976;SDS011;36992;48.200;12.418;2023-06-19T06:59:51;5.70;;;3.65;;
50976;SDS011;36992;48.200;12.418;2023-06-19T07:02:18;5.50;;;3.42;;
50976;SDS011;36992;48.200;12.418;2023-06-19T07:04:44;5.05;;;3.45;;
50976;SDS011;36992;48.200;12.418;2023-06-19T07:07:12;5.90;;;3.72;;
50976;SDS011;36992;48.200;12.418;2023-06-19T07:09:39;6.55;;;4.15;;
50976;SDS011;36992;48.200;12.418;2023-06-19T07:12:05;5.97;;;3.83;;
50976;SDS011;36992;48.200;12.418;2023-06-19T07:14:33;4.93;;;3.95;;
50976;SDS011;36992;48.200;12.418;2023-06-19T07:16:59;4.72;;;3.13;;
50976;SDS011;36992;48.200;12.418;2023-06-19T07:19:25;4.88;;;3.45;;
50976;SDS011;36992;48.200;12.418;2023-06-19T07:21:52;5.38;;;3.63;;
50976;SDS011;36992;48.200;12.418;2023-06-19T07:24:20;6.13;;;3.17;;
50976;SDS011;36992;48.200;12.418;2023-06-19T07:26:48;5.68;;;3.60;;
50976;SDS011;36992;48.200;12.418;2023-06-19T07:29:15;4.38;;;2.88;;
50976;SDS011;36992;48.200;12.418;2023-06-19T07:31:41;5.25;;;3.90;;
50976;SDS011;36992;48.200;12.418;2023-06-19T07:34:08;5.25;;;3.88;;
50976;SDS011;36992;48.200;12.418;2023-06-19T07:36:35;6.28;;;4.32;;
50976;SDS011;36992;48.200;12.418;2023-06-19T07:39:01;5.22;;;3.88;;
50976;SDS011;36992;48.200;12.418;2023-06-19T07:41:30;6.38;;;4.43;;
50976;SDS011;36992;48.200;12.418;2023-06-19T07:43:56;6.75;;;4.32;;
50976;SDS011;36992;48.200;12.418;2023-06-19T07:46:23;6.75;;;4.25;;
50976;SDS011;36992;48.200;12.418;2023-06-19T07:48:49;7.40;;;3.20;;
50976;SDS011;36992;48.200;12.418;2023-06-19T07:51:16;4.97;;;3.70;;
50976;SDS011;36992;48.200;12.418;2023-06-19T07:53:42;5.07;;;3.35;;
50976;SDS011;36992;48.200;12.418;2023-06-19T07:56:09;5.03;;;3.75;;
50976;SDS011;36992;48.200;12.418;2023-06-19T07:58:37;7.60;;;4.00;;
50976;SDS011;36992;48.200;12.418;2023-06-19T08:01:03;5.20;;;3.47;;
50976;SDS011;36992;48.200;12.418;2023-06-19T08:03:30;5.03;;;3.92;;
50976;SDS011;36992;48.200;12.418;2023-06-19T08:05:56;5.75;;;3.97;;
50976;SDS011;36992;48.200;12.418;2023-06-19T08:08:23;6.88;;;4.43;;
50976;SDS011;36992;48.200;12.418;2023-06-19T08:10:49;5.47;;;4.22;;
50976;SDS011;36992;48.200;12.418;2023-06-19T08:13:16;5.95;;;4.00;;
50976;SDS011;36992;48.200;12.418;2023-06-19T08:15:44;5.63;;;4.13;;
50976;SDS011;36992;48.200;12.418;2023-06-19T08:18:11;6.78;;;4.57;;
50976;SDS011;36992;48.200;12.418;2023-06-19T08:20:38;5.05;;;3.45;;
50976;SDS011;36992;48.200;12.418;2023-06-19T08:23:04;5.88;;;4.38;;
50976;SDS011;36992;48.200;12.418;2023-06-19T08:25:31;7.13;;;5.10;;
50976;SDS011;36992;48.200;12.418;2023-06-19T08:27:57;5.28;;;3.95;;
50976;SDS011;36992;48.200;12.418;2023-06-19T08:30:24;6.53;;;4.75;;
50976;SDS011;36992;48.200;12.418;2023-06-19T08:32:52;6.88;;;4.95;;
50976;SDS011;36992;48.200;12.418;2023-06-19T08:35:18;8.73;;;4.18;;
50976;SDS011;36992;48.200;12.418;2023-06-19T08:37:45;5.25;;;3.85;;
50976;SDS011;36992;48.200;12.418;2023-06-19T08:40:11;6.68;;;4.90;;
50976;SDS011;36992;48.200;12.418;2023-06-19T08:42:38;7.88;;;4.70;;
50976;SDS011;36992;48.200;12.418;2023-06-19T08:45:07;7.28;;;4.10;;
50976;SDS011;36992;48.200;12.418;2023-06-19T08:47:34;7.65;;;5.20;;
50976;SDS011;36992;48.200;12.418;2023-06-19T08:50:02;8.23;;;4.68;;
50976;SDS011;36992;48.200;12.418;2023-06-19T08:52:29;8.10;;;4.50;;
50976;SDS011;36992;48.200;12.418;2023-06-19T08:54:56;6.03;;;4.55;;
50976;SDS011;36992;48.200;12.418;2023-06-19T08:57:32;7.53;;;4.90;;
50976;SDS011;36992;48.200;12.418;2023-06-19T08:59:59;6.72;;;5.05;;
50976;SDS011;36992;48.200;12.418;2023-06-19T09:02:35;6.60;;;4.53;;
50976;SDS011;36992;48.200;12.418;2023-06-19T09:05:10;6.22;;;4.18;;
50976;SDS011;36992;48.200;12.418;2023-06-19T09:07:40;6.25;;;4.85;;
50976;SDS011;36992;48.200;12.418;2023-06-19T09:10:14;7.15;;;4.35;;
50976;SDS011;36992;48.200;12.418;2023-06-19T09:12:42;4.60;;;3.50;;
50976;SDS011;36992;48.200;12.418;2023-06-19T09:15:12;6.80;;;4.85;;
50976;SDS011;36992;48.200;12.418;2023-06-19T09:17:39;5.80;;;4.20;;
50976;SDS011;36992;48.200;12.418;2023-06-19T09:20:07;5.15;;;3.30;;
50976;SDS011;36992;48.200;12.418;2023-06-19T09:22:38;5.97;;;3.92;;
50976;SDS011;36992;48.200;12.418;2023-06-19T09:25:05;5.88;;;3.50;;
50976;SDS011;36992;48.200;12.418;2023-06-19T09:27:34;5.55;;;3.67;;
50976;SDS011;36992;48.200;12.418;2023-06-19T09:30:01;5.10;;;3.60;;
50976;SDS011;36992;48.200;12.418;2023-06-19T09:32:28;4.68;;;3.03;;
50976;SDS011;36992;48.200;12.418;2023-06-19T09:34:55;5.55;;;3.90;;
50976;SDS011;36992;48.200;12.418;2023-06-19T09:37:24;8.35;;;4.63;;
50976;SDS011;36992;48.200;12.418;2023-06-19T09:42:24;5.25;;;3.78;;
50976;SDS011;36992;48.200;12.418;2023-06-19T09:44:53;8.63;;;4.43;;
50976;SDS011;36992;48.200;12.418;2023-06-19T09:47:24;6.50;;;4.00;;
50976;SDS011;36992;48.200;12.418;2023-06-19T09:49:55;6.35;;;4.35;;
50976;SDS011;36992;48.200;12.418;2023-06-19T09:52:23;5.68;;;3.90;;
50976;SDS011;36992;48.200;12.418;2023-06-19T09:54:50;6.13;;;3.92;;
50976;SDS011;36992;48.200;12.418;2023-06-19T09:57:19;6.75;;;3.72;;
50976;SDS011;36992;48.200;12.418;2023-06-19T09:59:46;5.75;;;3.75;;
50976;SDS011;36992;48.200;12.418;2023-06-19T10:02:14;4.88;;;3.90;;
50976;SDS011;36992;48.200;12.418;2023-06-19T10:04:42;6.30;;;4.50;;
50976;SDS011;36992;48.200;12.418;2023-06-19T10:07:17;6.75;;;4.05;;
50976;SDS011;36992;48.200;12.418;2023-06-19T10:10:00;5.38;;;3.35;;
50976;SDS011;36992;48.200;12.418;2023-06-19T10:12:37;4.97;;;3.45;;
50976;SDS011;36992;48.200;12.418;2023-06-19T10:15:12;6.25;;;3.35;;
50976;SDS011;36992;48.200;12.418;2023-06-19T10:17:46;6.93;;;4.20;;
50976;SDS011;36992;48.200;12.418;2023-06-19T10:20:27;4.45;;;3.58;;
50976;SDS011;36992;48.200;12.418;2023-06-19T10:22:58;5.05;;;3.92;;
50976;SDS011;36992;48.200;12.418;2023-06-19T10:25:28;5.95;;;3.90;;
50976;SDS011;36992;48.200;12.418;2023-06-19T10:27:57;9.90;;;4.35;;
50976;SDS011;36992;48.200;12.418;2023-06-19T10:30:25;8.07;;;4.13;;
50976;SDS011;36992;48.200;12.418;2023-06-19T10:32:51;5.90;;;3.20;;
50976;SDS011;36992;48.200;12.418;2023-06-19T10:35:18;3.72;;;3.00;;
50976;SDS011;36992;48.200;12.418;2023-06-19T10:37:47;6.53;;;3.67;;
50976;SDS011;36992;48.200;12.418;2023-06-19T10:40:14;4.28;;;2.95;;
50976;SDS011;36992;48.200;12.418;2023-06-19T10:42:40;3.78;;;2.90;;
50976;SDS011;36992;48.200;12.418;2023-06-19T10:45:09;5.60;;;3.28;;
50976;SDS011;36992;48.200;12.418;2023-06-19T10:47:39;5.03;;;2.97;;
50976;SDS011;36992;48.200;12.418;2023-06-19T10:50:09;4.53;;;2.75;;
50976;SDS011;36992;48.200;12.418;2023-06-19T10:52:39;5.32;;;3.08;;
50976;SDS011;36992;48.200;12.418;2023-06-19T10:55:06;5.13;;;4.03;;
50976;SDS011;36992;48.200;12.418;2023-06-19T10:57:33;4.13;;;3.13;;
50976;SDS011;36992;48.200;12.418;2023-06-19T10:59:59;2.95;;;2.35;;
50976;SDS011;36992;48.200;12.418;2023-06-19T11:02:27;4.65;;;2.88;;
50976;SDS011;36992;48.200;12.418;2023-06-19T11:04:54;4.40;;;3.22;;
50976;SDS011;36992;48.200;12.418;2023-06-19T11:07:21;5.97;;;3.72;;
50976;SDS011;36992;48.200;12.418;2023-06-19T11:09:48;4.68;;;3.72;;
50976;SDS011;36992;48.200;12.418;2023-06-19T11:12:18;5.25;;;3.00;;
50976;SDS011;36992;48.200;12.418;2023-06-19T11:14:45;4.93;;;2.83;;
50976;SDS011;36992;48.200;12.418;2023-06-19T11:17:12;4.03;;;2.92;;
50976;SDS011;36992;48.200;12.418;2023-06-19T11:19:40;4.03;;;2.85;;
50976;SDS011;36992;48.200;12.418;2023-06-19T11:22:08;4.00;;;2.85;;
50976;SDS011;36992;48.200;12.418;2023-06-19T11:24:36;5.10;;;3.45;;
50976;SDS011;36992;48.200;12.418;2023-06-19T11:27:03;4.50;;;2.97;;
50976;SDS011;36992;48.200;12.418;2023-06-19T11:29:30;3.65;;;2.63;;
50976;SDS011;36992;48.200;12.418;2023-06-19T11:32:04;3.83;;;2.33;;
50976;SDS011;36992;48.200;12.418;2023-06-19T11:34:32;6.28;;;2.65;;
50976;SDS011;36992;48.200;12.418;2023-06-19T11:37:10;3.58;;;2.60;;
50976;SDS011;36992;48.200;12.418;2023-06-19T11:39:38;2.90;;;2.00;;
50976;SDS011;36992;48.200;12.418;2023-06-19T11:42:05;9.88;;;3.53;;
50976;SDS011;36992;48.200;12.418;2023-06-19T11:44:32;8.48;;;3.15;;
50976;SDS011;36992;48.200;12.418;2023-06-19T11:46:58;4.65;;;2.30;;
50976;SDS011;36992;48.200;12.418;2023-06-19T11:49:27;3.22;;;2.53;;
50976;SDS011;36992;48.200;12.418;2023-06-19T11:51:57;3.63;;;2.88;;
50976;SDS011;36992;48.200;12.418;2023-06-19T11:54:25;3.65;;;2.40;;
50976;SDS011;36992;48.200;12.418;2023-06-19T11:56:51;3.83;;;2.88;;
50976;SDS011;36992;48.200;12.418;2023-06-19T11:59:18;3.97;;;2.80;;
50976;SDS011;36992;48.200;12.418;2023-06-19T12:01:44;3.15;;;2.10;;
50976;SDS011;36992;48.200;12.418;2023-06-19T12:04:11;3.38;;;2.60;;
50976;SDS011;36992;48.200;12.418;2023-06-19T12:06:38;3.20;;;2.30;;
50976;SDS011;36992;48.200;12.418;2023-06-19T12:09:05;2.83;;;2.05;;
50976;SDS011;36992;48.200;12.418;2023-06-19T12:11:33;3.78;;;1.92;;
50976;SDS011;36992;48.200;12.418;2023-06-19T12:13:59;3.95;;;1.98;;
50976;SDS011;36992;48.200;12.418;2023-06-19T12:16:26;2.67;;;1.58;;
50976;SDS011;36992;48.200;12.418;2023-06-19T12:18:53;2.47;;;1.52;;
50976;SDS011;36992;48.200;12.418;2023-06-19T12:21:20;3.35;;;2.40;;
50976;SDS011;36992;48.200;12.418;2023-06-19T12:23:46;6.50;;;1.85;;
50976;SDS011;36992;48.200;12.418;2023-06-19T12:26:13;2.72;;;2.03;;
50976;SDS011;36992;48.200;12.418;2023-06-19T12:28:40;2.72;;;2.03;;
50976;SDS011;36992;48.200;12.418;2023-06-19T12:31:07;2.83;;;1.83;;
50976;SDS011;36992;48.200;12.418;2023-06-19T12:33:34;3.60;;;2.40;;
50976;SDS011;36992;48.200;12.418;2023-06-19T12:36:02;2.58;;;1.92;;
50976;SDS011;36992;48.200;12.418;2023-06-19T12:38:30;2.78;;;1.70;;
50976;SDS011;36992;48.200;12.418;2023-06-19T12:40:57;4.35;;;2.38;;
50976;SDS011;36992;48.200;12.418;2023-06-19T12:43:24;2.67;;;1.77;;
50976;SDS011;36992;48.200;12.418;2023-06-19T12:45:51;47.70;;;7.93;;
50976;SDS011;36992;48.200;12.418;2023-06-19T12:48:18;4.43;;;2.50;;
50976;SDS011;36992;48.200;12.418;2023-06-19T12:50:44;4.57;;;2.00;;
50976;SDS011;36992;48.200;12.418;2023-06-19T12:53:11;3.15;;;2.10;;
50976;SDS011;36992;48.200;12.418;2023-06-19T12:55:37;3.28;;;2.15;;
50976;SDS011;36992;48.200;12.418;2023-06-19T12:58:04;2.85;;;1.90;;
50976;SDS011;36992;48.200;12.418;2023-06-19T13:00:30;2.88;;;1.85;;
50976;SDS011;36992;48.200;12.418;2023-06-19T13:02:58;3.72;;;2.47;;
50976;SDS011;36992;48.200;12.418;2023-06-19T13:05:25;2.20;;;1.90;;
50976;SDS011;36992;48.200;12.418;2023-06-19T13:07:51;2.65;;;1.83;;
50976;SDS011;36992;48.200;12.418;2023-06-19T13:10:18;2.80;;;1.80;;
50976;SDS011;36992;48.200;12.418;2023-06-19T13:12:44;6.32;;;1.85;;
50976;SDS011;36992;48.200;12.418;2023-06-19T13:15:11;2.90;;;2.25;;
50976;SDS011;36992;48.200;12.418;2023-06-19T13:17:37;4.35;;;2.38;;
50976;SDS011;36992;48.200;12.418;2023-06-19T13:20:06;3.33;;;2.03;;
50976;SDS011;36992;48.200;12.418;2023-06-19T13:22:33;3.50;;;2.28;;
50976;SDS011;36992;48.200;12.418;2023-06-19T13:24:59;2.60;;;1.60;;
50976;SDS011;36992;48.200;12.418;2023-06-19T13:27:27;3.38;;;2.22;;
50976;SDS011;36992;48.200;12.418;2023-06-19T13:29:54;3.35;;;2.20;;
50976;SDS011;36992;48.200;12.418;2023-06-19T13:32:21;2.92;;;2.22;;
50976;SDS011;36992;48.200;12.418;2023-06-19T13:34:47;2.67;;;1.90;;
50976;SDS011;36992;48.200;12.418;2023-06-19T13:37:15;3.20;;;1.90;;
50976;SDS011;36992;48.200;12.418;2023-06-19T13:39:42;1.98;;;1.42;;
50976;SDS011;36992;48.200;12.418;2023-06-19T13:42:08;1.95;;;1.35;;
50976;SDS011;36992;48.200;12.418;2023-06-19T13:44:35;2.95;;;1.77;;
50976;SDS011;36992;48.200;12.418;2023-06-19T13:47:02;2.50;;;1.70;;
50976;SDS011;36992;48.200;12.418;2023-06-19T13:49:29;2.35;;;1.50;;
50976;SDS011;36992;48.200;12.418;2023-06-19T13:51:55;3.03;;;2.10;;
50976;SDS011;36992;48.200;12.418;2023-06-19T13:54:23;2.35;;;1.63;;
50976;SDS011;36992;48.200;12.418;2023-06-19T13:56:49;4.13;;;2.83;;
50976;SDS011;36992;48.200;12.418;2023-06-19T13:59:17;8.23;;;2.28;;
50976;SDS011;36992;48.200;12.418;2023-06-19T14:01:44;2.60;;;2.25;;
50976;SDS011;36992;48.200;12.418;2023-06-19T14:04:10;3.55;;;1.95;;
50976;SDS011;36992;48.200;12.418;2023-06-19T14:06:37;3.83;;;2.42;;
50976;SDS011;36992;48.200;12.418;2023-06-19T14:09:03;2.67;;;1.73;;
50976;SDS011;36992;48.200;12.418;2023-06-19T14:11:31;3.28;;;2.15;;
50976;SDS011;36992;48.200;12.418;2023-06-19T14:13:58;2.97;;;1.77;;
50976;SDS011;36992;48.200;12.418;2023-06-19T14:16:24;2.85;;;2.20;;
50976;SDS011;36992;48.200;12.418;2023-06-19T14:18:51;4.55;;;2.15;;
50976;SDS011;36992;48.200;12.418;2023-06-19T14:21:17;2.75;;;1.88;;
50976;SDS011;36992;48.200;12.418;2023-06-19T14:23:44;3.00;;;2.20;;
50976;SDS011;36992;48.200;12.418;2023-06-19T14:26:10;3.85;;;2.10;;
50976;SDS011;36992;48.200;12.418;2023-06-19T14:28:38;3.83;;;2.50;;
50976;SDS011;36992;48.200;12.418;2023-06-19T14:31:05;3.85;;;2.00;;
50976;SDS011;36992;48.200;12.418;2023-06-19T14:33:32;3.65;;;2.63;;
50976;SDS011;36992;48.200;12.418;2023-06-19T14:36:00;2.63;;;1.95;;